createdAt,value
2022-10-11T00:00:55.081Z,11.00
2022-10-11T00:05:51.424Z,10.90
2022-10-11T00:08:19.480Z,10.80
2022-10-11T00:10:56.285Z,10.70
2022-10-11T00:15:53.726Z,7.30
2022-10-11T00:18:21.578Z,10.80
2022-10-11T00:20:49.877Z,10.70
2022-10-11T00:23:18.294Z,10.70
2022-10-11T00:27:17.262Z,10.70
2022-10-11T00:29:45.073Z,10.70
2022-10-11T00:32:12.909Z,10.70
2022-10-11T00:34:40.770Z,10.60
2022-10-11T00:37:08.589Z,10.60
2022-10-11T00:44:34.815Z,10.50
2022-10-11T00:47:05.788Z,10.50
2022-10-11T00:49:36.805Z,10.50
2022-10-11T00:52:07.881Z,10.50
2022-10-11T00:54:40.271Z,10.50
2022-10-11T00:57:11.665Z,10.50
2022-10-11T00:59:45.619Z,10.40
2022-10-11T01:02:17.802Z,10.40
2022-10-11T01:04:45.818Z,10.40
2022-10-11T01:09:57.254Z,10.40
2022-10-11T01:12:27.699Z,10.30
2022-10-11T01:18:04.600Z,10.20
2022-10-11T01:20:44.537Z,10.20
2022-10-11T01:23:39.686Z,10.20
2022-10-11T01:26:30.708Z,10.20
2022-10-11T01:29:12.314Z,10.10
2022-10-11T01:31:47.848Z,10.10
2022-10-11T01:34:23.403Z,10.10
2022-10-11T01:36:57.917Z,10.10
2022-10-11T01:39:33.623Z,10.00
2022-10-11T01:42:04.762Z,10.00
2022-10-11T01:44:35.425Z,10.00
2022-10-11T01:48:56.959Z,10.00
2022-10-11T01:51:28.210Z,9.90
2022-10-11T01:55:04.031Z,9.90
2022-10-11T01:58:04.094Z,9.90
2022-10-11T02:00:41.950Z,9.90
2022-10-11T02:03:20.446Z,11.40
2022-10-11T02:05:55.813Z,9.80
2022-10-11T02:08:31.960Z,9.80
2022-10-11T02:11:05.484Z,9.80
2022-10-11T02:16:16.562Z,9.70
2022-10-11T02:18:48.566Z,9.70
2022-10-11T02:21:21.432Z,9.70
2022-10-11T02:23:54.539Z,9.70
2022-10-11T02:26:24.246Z,9.70
2022-10-11T02:28:54.083Z,9.70
2022-10-11T02:31:24.071Z,9.60
2022-10-11T02:34:32.742Z,9.60
2022-10-11T02:37:06.879Z,9.60
2022-10-11T02:39:41.668Z,9.60
2022-10-11T02:42:15.382Z,9.60
2022-10-11T02:44:47.921Z,9.60
2022-10-11T02:49:51.342Z,9.50
2022-10-11T02:52:19.372Z,9.50
2022-10-11T02:54:47.370Z,9.50
2022-10-11T02:57:16.350Z,9.50
2022-10-11T02:59:44.234Z,9.50
2022-10-11T03:02:12.623Z,9.50
2022-10-11T03:04:54.732Z,9.50
2022-10-11T03:07:22.499Z,9.50
2022-10-11T03:09:50.454Z,9.50
2022-10-11T03:15:07.143Z,9.40
2022-10-11T03:17:36.914Z,9.40
2022-10-11T03:20:06.228Z,9.40
2022-10-11T03:22:34.237Z,9.40
2022-10-11T03:25:04.387Z,9.40
2022-10-11T03:30:08.754Z,9.40
2022-10-11T03:32:36.688Z,9.40
2022-10-11T03:35:05.159Z,9.40
2022-10-11T03:37:33.059Z,9.40
2022-10-11T03:40:01.229Z,9.40
2022-10-11T03:47:29.200Z,9.30
2022-10-11T03:58:02.748Z,9.20
2022-10-11T04:02:59.192Z,9.20
2022-10-11T04:05:27.537Z,9.20
2022-10-11T04:09:42.546Z,9.10
2022-10-11T04:12:50.131Z,9.10
2022-10-11T04:15:20.847Z,9.10
2022-10-11T04:17:48.946Z,9.10
2022-10-11T04:21:50.252Z,9.00
2022-10-11T04:24:18.755Z,9.00
2022-10-11T04:26:46.679Z,9.00
2022-10-11T04:29:14.584Z,9.00
2022-10-11T04:31:42.403Z,9.00
2022-10-11T04:41:59.399Z,8.90
2022-10-11T04:51:05.460Z,8.90
2022-10-11T04:53:33.407Z,8.80
2022-10-11T04:56:03.304Z,8.90
2022-10-11T04:58:32.973Z,8.90
2022-10-11T05:01:00.931Z,8.80
2022-10-11T05:12:53.447Z,8.80
2022-10-11T05:17:49.687Z,8.70
2022-10-11T05:20:17.850Z,8.80
2022-10-11T05:24:18.561Z,8.80
2022-10-11T05:26:46.972Z,8.70
2022-10-11T05:29:14.941Z,8.70
2022-10-11T05:31:43.238Z,8.70
2022-10-11T05:36:06.049Z,8.80
2022-10-11T05:39:23.774Z,8.70
2022-10-11T05:43:19.778Z,8.70
2022-10-11T05:45:47.947Z,8.70
2022-10-11T05:49:48.440Z,8.70
2022-10-11T05:54:50.873Z,8.70
2022-10-11T06:06:27.911Z,8.70
2022-10-11T06:20:34.951Z,8.60
2022-10-11T06:27:45.884Z,8.80
2022-10-11T06:30:14.649Z,8.80
2022-10-11T06:44:42.703Z,8.90
2022-10-11T06:56:52.188Z,9.10
2022-10-11T07:07:21.475Z,9.30
2022-10-11T07:14:07.495Z,9.30
2022-10-11T07:25:06.431Z,9.50
2022-10-11T07:29:16.664Z,9.60
2022-10-11T07:31:45.102Z,10.60
2022-10-11T07:38:20.300Z,9.90
2022-10-11T07:50:34.218Z,10.10
2022-10-11T07:53:02.406Z,10.30
2022-10-11T08:00:25.867Z,10.50
2022-10-11T08:21:12.848Z,11.00
2022-10-11T08:25:42.331Z,11.40
2022-10-11T08:28:10.863Z,11.40
2022-10-11T08:35:57.192Z,11.70
2022-10-11T08:41:49.400Z,12.00
2022-10-11T08:44:58.200Z,12.00
2022-10-11T08:54:35.894Z,12.60
2022-10-11T08:57:05.414Z,12.70
2022-10-11T09:08:22.365Z,13.20
2022-10-11T09:19:36.222Z,13.60
2022-10-11T09:22:15.566Z,13.70
2022-10-11T09:29:49.649Z,14.00
2022-10-11T09:32:56.550Z,14.10
2022-10-11T09:42:50.492Z,14.50
2022-10-11T09:54:10.701Z,14.90
2022-10-11T09:56:43.683Z,15.70
2022-10-11T10:11:38.083Z,15.40
2022-10-11T10:14:05.962Z,15.60
2022-10-11T10:19:21.375Z,15.80
2022-10-11T10:21:51.655Z,16.00
2022-10-11T10:24:25.571Z,16.10
2022-10-11T10:27:08.559Z,16.90
2022-10-11T10:29:37.849Z,16.20
2022-10-11T10:33:33.781Z,16.30
2022-10-11T10:36:06.568Z,16.40
2022-10-11T10:41:17.540Z,16.60
2022-10-11T10:43:51.004Z,16.60
2022-10-11T10:46:29.691Z,16.70
2022-10-11T10:52:05.854Z,16.80
2022-10-11T10:54:45.092Z,16.90
2022-10-11T10:57:19.127Z,17.00
2022-10-11T11:00:07.208Z,17.10
2022-10-11T11:02:42.680Z,17.20
2022-10-11T11:05:24.342Z,17.20
2022-10-11T11:07:58.533Z,17.20
2022-10-11T11:10:34.015Z,17.30
2022-10-11T11:13:18.792Z,17.40
2022-10-11T11:15:51.149Z,17.40
2022-10-11T11:18:30.061Z,17.50
2022-10-11T11:21:14.112Z,17.50
2022-10-11T11:23:50.428Z,17.60
2022-10-11T11:26:26.171Z,17.60
2022-10-11T11:29:07.739Z,17.70
2022-10-11T11:31:58.732Z,17.80
2022-10-11T11:34:30.282Z,17.90
2022-10-11T11:37:01.409Z,17.90
2022-10-11T11:39:34.016Z,18.00
2022-10-11T11:42:07.734Z,18.00
2022-10-11T11:44:41.055Z,18.00
2022-10-11T11:47:36.628Z,18.00
2022-10-11T11:50:22.196Z,19.50
2022-10-11T11:52:53.547Z,18.20
2022-10-11T11:55:30.697Z,19.20
2022-10-11T11:58:08.512Z,18.30
2022-10-11T12:00:48.225Z,18.40
2022-10-11T12:03:25.263Z,18.50
2022-10-11T12:06:29.567Z,18.60
2022-10-11T12:09:03.877Z,18.80
2022-10-11T12:11:43.136Z,18.90
2022-10-11T12:14:30.689Z,18.90
2022-10-11T12:17:25.811Z,19.00
2022-10-11T12:20:20.672Z,19.10
2022-10-11T12:23:01.565Z,19.10
2022-10-11T12:25:45.179Z,19.10
2022-10-11T12:29:00.495Z,19.10
2022-10-11T12:31:31.367Z,19.10
2022-10-11T12:34:34.607Z,19.10
2022-10-11T12:37:41.267Z,19.00
2022-10-11T12:40:41.718Z,18.90
2022-10-11T12:43:36.072Z,18.90
2022-10-11T12:46:42.523Z,18.90
2022-10-11T12:49:33.675Z,18.90
2022-10-11T12:52:03.056Z,18.90
2022-10-11T12:55:02.301Z,18.90
2022-10-11T12:58:08.162Z,18.80
2022-10-11T13:00:46.483Z,18.80
2022-10-11T13:03:32.532Z,18.80
2022-10-11T13:06:11.009Z,18.80
2022-10-11T13:08:43.023Z,18.90
2022-10-11T13:11:16.974Z,18.90
2022-10-11T13:13:53.361Z,19.30
2022-10-11T13:16:24.429Z,21.80
2022-10-11T13:18:57.893Z,19.20
2022-10-11T13:21:30.280Z,20.80
2022-10-11T13:24:01.025Z,19.40
2022-10-11T13:26:31.553Z,19.50
2022-10-11T13:29:01.343Z,19.50
2022-10-11T13:31:29.400Z,19.60
2022-10-11T13:33:59.919Z,19.70
2022-10-11T13:36:28.731Z,19.80
2022-10-11T13:38:58.827Z,20.60
2022-10-11T13:41:28.018Z,19.80
2022-10-11T13:43:57.391Z,20.10
2022-10-11T13:46:28.114Z,21.80
2022-10-11T13:49:00.836Z,19.80
2022-10-11T13:51:32.376Z,19.80
2022-10-11T13:54:03.024Z,19.80
2022-10-11T13:56:35.464Z,19.80
2022-10-11T13:59:03.882Z,19.70
2022-10-11T14:01:40.719Z,19.70
2022-10-11T14:04:11.090Z,19.80
2022-10-11T14:06:48.124Z,19.80
2022-10-11T14:09:23.142Z,19.80
2022-10-11T14:11:51.576Z,19.70
2022-10-11T14:14:41.356Z,19.80
2022-10-11T14:17:17.518Z,19.70
2022-10-11T14:19:47.142Z,20.60
2022-10-11T14:22:16.989Z,19.70
2022-10-11T14:24:48.774Z,19.70
2022-10-11T14:27:20.425Z,21.10
2022-10-11T14:30:00.501Z,19.70
2022-10-11T14:32:37.859Z,19.70
2022-10-11T14:35:06.817Z,22.80
2022-10-11T14:37:34.588Z,19.70
2022-10-11T14:40:02.579Z,19.70
2022-10-11T14:42:30.355Z,19.70
2022-10-11T14:44:58.210Z,22.70
2022-10-11T14:47:27.328Z,19.70
2022-10-11T14:49:56.436Z,19.70
2022-10-11T14:52:24.218Z,19.70
2022-10-11T14:54:52.081Z,19.70
2022-10-11T14:57:19.920Z,19.60
2022-10-11T14:59:47.807Z,19.60
2022-10-11T15:02:15.586Z,19.60
2022-10-11T15:04:43.426Z,19.50
2022-10-11T15:07:13.851Z,19.50
2022-10-11T15:09:41.708Z,22.00
2022-10-11T15:12:10.566Z,19.40
2022-10-11T15:14:38.501Z,19.40
2022-10-11T15:17:06.298Z,22.10
2022-10-11T15:19:34.251Z,19.30
2022-10-11T15:22:04.230Z,19.30
2022-10-11T15:24:33.440Z,19.30
2022-10-11T15:27:01.280Z,19.20
2022-10-11T15:29:29.232Z,19.20
2022-10-11T15:31:57.095Z,19.20
2022-10-11T15:34:25.031Z,19.10
2022-10-11T15:36:57.901Z,19.10
2022-10-11T15:39:28.584Z,19.10
2022-10-11T15:41:58.614Z,19.10
2022-10-11T15:44:26.837Z,19.00
2022-10-11T15:46:54.858Z,19.00
2022-10-11T15:49:22.827Z,18.90
2022-10-11T15:51:50.784Z,18.90
2022-10-11T15:54:18.691Z,18.90
2022-10-11T15:56:46.662Z,18.80
2022-10-11T15:59:15.800Z,18.80
2022-10-11T16:01:43.785Z,18.70
2022-10-11T16:04:11.758Z,21.30
2022-10-11T16:06:40.928Z,18.70
2022-10-11T16:09:08.904Z,18.60
2022-10-11T16:11:36.707Z,18.60
2022-10-11T16:14:04.535Z,18.50
2022-10-11T16:16:33.657Z,18.50
2022-10-11T16:19:01.471Z,18.40
2022-10-11T16:21:29.242Z,18.40
2022-10-11T16:23:57.025Z,18.40
2022-10-11T16:26:24.934Z,18.30
2022-10-11T16:28:52.789Z,18.20
2022-10-11T16:31:21.120Z,18.20
2022-10-11T16:33:52.742Z,18.20
2022-10-11T16:36:40.365Z,18.00
2022-10-11T16:39:12.805Z,18.00
2022-10-11T16:41:41.167Z,17.90
2022-10-11T16:44:12.525Z,17.90
2022-10-11T16:46:40.603Z,17.80
2022-10-11T16:49:09.979Z,17.70
2022-10-11T16:51:37.800Z,17.70
2022-10-11T16:54:06.009Z,17.60
2022-10-11T16:56:39.577Z,17.50
2022-10-11T16:59:08.279Z,17.40
2022-10-11T17:01:36.144Z,17.40
2022-10-11T17:04:04.224Z,17.30
2022-10-11T17:06:33.484Z,17.30
2022-10-11T17:09:01.350Z,17.20
2022-10-11T17:11:29.502Z,17.20
2022-10-11T17:13:57.869Z,17.10
2022-10-11T17:16:25.736Z,17.00
2022-10-11T17:18:56.145Z,17.00
2022-10-11T17:21:24.372Z,16.90
2022-10-11T17:23:53.866Z,16.80
2022-10-11T17:26:24.970Z,16.80
2022-10-11T17:28:53.217Z,16.70
2022-10-11T17:31:21.276Z,16.70
2022-10-11T17:33:49.371Z,16.60
2022-10-11T17:36:21.670Z,16.60
2022-10-11T17:38:50.544Z,16.50
2022-10-11T17:41:20.364Z,16.50
2022-10-11T17:43:48.736Z,16.50
2022-10-11T17:46:17.770Z,17.30
2022-10-11T17:48:45.911Z,16.30
2022-10-11T17:51:15.809Z,16.30
2022-10-11T17:53:45.044Z,16.30
2022-10-11T17:56:14.774Z,16.30
2022-10-11T17:58:44.003Z,16.10
2022-10-11T18:01:14.469Z,16.20
2022-10-11T18:03:42.927Z,16.10
2022-10-11T18:06:12.491Z,16.10
2022-10-11T18:08:41.634Z,16.00
2022-10-11T18:11:14.420Z,16.00
2022-10-11T18:13:46.412Z,16.00
2022-10-11T18:16:15.402Z,15.90
2022-10-11T18:18:43.885Z,15.90
2022-10-11T18:21:12.887Z,15.90
2022-10-11T18:23:40.940Z,15.80
2022-10-11T18:26:13.271Z,15.70
2022-10-11T18:28:43.065Z,15.70
2022-10-11T18:31:14.329Z,15.60
2022-10-11T18:33:43.512Z,15.70
2022-10-11T18:36:13.482Z,15.50
2022-10-11T18:38:46.242Z,15.50
2022-10-11T18:41:17.037Z,15.50
2022-10-11T18:43:49.771Z,15.40
2022-10-11T18:46:18.178Z,16.70
2022-10-11T18:48:48.227Z,15.70
2022-10-11T18:51:18.442Z,15.40
2022-10-11T18:53:47.097Z,15.30
2022-10-11T18:56:16.162Z,15.20
2022-10-11T18:58:45.898Z,15.20
2022-10-11T19:01:17.932Z,15.20
2022-10-11T19:03:47.541Z,15.20
2022-10-11T19:06:18.985Z,15.10
2022-10-11T19:08:48.306Z,15.10
2022-10-11T19:11:17.379Z,15.10
2022-10-11T19:13:46.598Z,15.00
2022-10-11T19:16:17.445Z,14.90
2022-10-11T19:18:45.857Z,14.90
2022-10-11T19:21:14.532Z,14.90
2022-10-11T19:23:44.350Z,14.80
2022-10-11T19:26:15.510Z,14.80
2022-10-11T19:28:43.730Z,14.80
2022-10-11T19:31:16.897Z,14.70
2022-10-11T19:33:47.981Z,14.70
2022-10-11T19:36:16.393Z,14.60
2022-10-11T19:38:46.257Z,14.60
2022-10-11T19:41:15.626Z,14.50
2022-10-11T19:43:43.906Z,14.50
2022-10-11T19:46:20.258Z,14.50
2022-10-11T19:48:55.816Z,14.40
2022-10-11T19:51:25.496Z,14.30
2022-10-11T19:53:57.112Z,14.30
2022-10-11T19:56:25.947Z,14.20
2022-10-11T20:01:24.804Z,14.20
2022-10-11T20:03:55.523Z,14.10
2022-10-11T20:06:24.952Z,14.10
2022-10-11T20:09:16.582Z,14.00
2022-10-11T20:11:41.679Z,14.00
2022-10-11T20:14:09.789Z,13.90
2022-10-11T20:16:39.063Z,13.90
2022-10-11T20:19:06.910Z,13.80
2022-10-11T20:24:04.969Z,13.70
2022-10-11T20:31:32.782Z,13.60
2022-10-11T20:34:04.889Z,13.60
2022-10-11T20:36:34.178Z,13.50
2022-10-11T20:39:02.793Z,13.50
2022-10-11T20:41:32.488Z,13.40
2022-10-11T20:44:01.876Z,13.40
2022-10-11T20:46:31.624Z,13.30
2022-10-11T20:49:03.070Z,13.40
2022-10-11T20:51:34.995Z,13.30
2022-10-11T20:54:04.255Z,13.20
2022-10-11T20:56:33.597Z,13.20
2022-10-11T20:59:01.492Z,13.20
2022-10-11T21:01:31.211Z,13.20
2022-10-11T21:04:00.239Z,13.00
2022-10-11T21:06:30.788Z,13.00
2022-10-11T21:08:59.991Z,13.00
2022-10-11T21:18:54.589Z,12.90
2022-10-11T21:21:23.748Z,12.90
2022-10-11T21:23:54.623Z,12.70
2022-10-11T21:31:21.329Z,12.70
2022-10-11T21:36:22.415Z,12.70
2022-10-11T21:38:52.880Z,12.70
2022-10-11T21:41:22.401Z,12.70
2022-10-11T21:43:50.668Z,12.70
2022-10-11T21:46:20.712Z,12.70
2022-10-11T21:51:21.353Z,12.70
2022-10-11T21:56:19.506Z,12.70
2022-10-11T21:58:48.704Z,12.60
2022-10-11T22:06:13.880Z,12.70
2022-10-11T22:11:10.979Z,12.60
2022-10-11T22:13:40.274Z,12.70
2022-10-11T22:16:09.861Z,12.60
2022-10-11T22:21:09.680Z,12.60
2022-10-11T22:26:07.327Z,12.50
2022-10-11T22:28:35.770Z,12.50
2022-10-11T22:31:06.207Z,12.50
2022-10-11T22:36:04.729Z,12.40
2022-10-11T22:48:26.798Z,12.20
2022-10-11T22:55:51.075Z,12.20
2022-10-11T23:03:18.907Z,12.10
2022-10-11T23:05:56.644Z,12.10
2022-10-11T23:10:53.072Z,12.10
2022-10-11T23:13:23.259Z,12.00
2022-10-11T23:23:19.796Z,12.00
2022-10-11T23:35:40.401Z,11.90
2022-10-11T23:40:37.734Z,11.90
2022-10-11T23:57:56.027Z,11.80
